KMCB/MCB METAR and TAF weather

Enter ICAO airport designator
Station Type Date Time Source
KMCB METAR 2021/05/14 11:53 UTC NOAA

KMCB 141153Z AUTO 00000KT 10SM CLR 14/11 A3022 RMK AO2 SLP230 T01390111 10167 20133 53007


Station Type Date Time Source
KMCB Decoded METAR 2021/05/14 11:53 UTC NOAA

MCCOMB/PIKE COUNTY AIRPORT, MS, United States (KMCB) 31-11N 90-28W 124M
May 14, 2021 - 07:53 AM EDT / 2021.05.14 1153 UTC
Wind: Calm:0
Visibility: 10 mile(s):0
Sky conditions: clear
Temperature: 57.0 F (13.9 C)
Dew Point: 52.0 F (11.1 C)
Relative Humidity: 83%
Pressure (altimeter): 30.22 in. Hg (1023 hPa)
Pressure tendency: 0.02 inches (0.7 hPa) higher than three hours ago
ob: KMCB 141153Z AUTO 00000KT 10SM CLR 14/11 A3022 RMK AO2 SLP230 T01390111 10167 20133 53007
cycle: 12

Station Type Date Time Source
KMCB TAF 2021/05/14 12:36 UTC NOAA

TAF KMCB 141133Z 1412/1512 04003KT P6SM SKC
FM141800 VRB06KT P6SM FEW250

Example: see airport list